6880000 - Lincoln Creek near Seward

Latitude:
40.91584º N
Longitude:
97.14531º W
Type:
Stream
River Basin:
Big Blue
Source:
NeDNR

Info! The graphs are now plotted with new date ranges.
Warning! If you see this please check date range (or) the data is not available.

 to 


—— Provisional Data Subject to Revision ——

Instantaneous Discharge

6880000 - Lincoln Creek near Seward
- Ice Possible      - Equipment Malfunction
- Seasonal      -Rating in Development
- Measured



Instantaneous Stage

6880000 - Lincoln Creek near Seward
- Ice Possible      - Equipment Malfunction
- Seasonal      -Rating in Development
- Measured



 to 


—— Provisional Data Subject to Revision ——

Daily Discharge

6880000 - Lincoln Creek near Seward
- Approved      - Provisional


Export
Date Time Discharge (cfs) Stage (feet) Shift (feet)
09/03/2019 10:04 136 7.22 0.04
08/06/2019 10:58 50.4 5.65 -0.18
07/08/2019 14:39 53.3 5.87 -0.32
06/06/2019 11:10 133 7.67 -0.45
05/10/2019 11:09 38.6 5.42 -0.29
04/04/2019 10:49 45.2 5.69 -0.37
03/18/2019 11:16 961 15.02 0.32
02/13/2019 11:08 33.2 5.05 -0.10
01/10/2019 12:30 29.4 5.01 -0.18
12/12/2018 11:33 30.1 5.09 -0.24
11/06/2018 10:12 20.7 4.90 -0.40
10/02/2018 14:26 19.6 4.70 -0.25
09/06/2018 13:50 108 6.85 -0.09
08/02/2018 11:07 20.7 4.73 -0.23
07/03/2018 11:29 1,550 17.42 0.16
06/27/2018 10:25 1,120 15.83 0.48
06/13/2018 10:59 18.8 4.50 -0.08
05/01/2018 11:29 19.6 4.49 -0.04
04/11/2018 11:53 19.4 4.57 -0.39
03/14/2018 10:51 22.2 4.66 -0.37
02/14/2018 9:04 19.1 5.95 -1.78
01/09/2018 11:17 11.6 5.24 -1.44
12/11/2017 11:07 17.8 4.56 -0.44
11/15/2017 11:46 19.2 4.65 -0.48
10/13/2017 9:57 60.7 5.76 -0.38
09/12/2017 12:28 17.3 4.53 -0.44
08/21/2017 13:32 1,260 16.90 -1.02
08/17/2017 10:32 812 14.49 -0.74
08/02/2017 12:15 18.1 4.33 -0.20
07/13/2017 10:26 1,070 16.56 -1.42
07/10/2017 11:46 21.7 4.45 -0.18
06/06/2017 12:09 19.3 4.29 -0.11
05/23/2017 12:05 186 8.17 -0.58
04/06/2017 10:51 14.2 4.09 -0.14
03/06/2017 10:42 15.5 4.11 -0.10
02/06/2017 10:58 16.6 4.17 -0.11
12/30/2016 11:04 16.7 4.60 -0.53
12/02/2016 10:54 12.6 4.05 -0.19
11/02/2016 11:03 12.2 4.04 -0.20
10/17/2016 11:53 12.4 4.02 -0.17
09/06/2016 12:01 10.1 3.93 -0.22
08/05/2016 12:08 32.1 4.75 -0.14
07/25/2016 12:06 14.1 4.03 -0.09
07/11/2016 12:20 36.8 4.91 -0.15
06/09/2016 10:11 37.2 5.03 -0.26
05/11/2016 13:34 580 12.27 -0.32
04/12/2016 11:34 16.0 4.17 -0.14
03/07/2016 11:02 19.5 4.36 -0.18
02/10/2016 11:44 18.6 4.25 -0.10
01/05/2016 11:05 14.0 4.19 -0.25
12/10/2015 10:04 15.4 4.36 -0.36
11/16/2015 10:55 13.3 4.47 -0.57
10/20/2015 13:08 10.1 4.32 -0.62
09/21/2015 10:40 12.5 4.07 -0.21
08/11/2015 11:41 21.5 4.38 -0.12
07/14/2015 11:46 27.4 4.71 -0.24
06/09/2015 10:24 384 10.60 -0.57
05/27/2015 11:21 23.9 4.40 -0.05
04/21/2015 12:01 16.8 4.31 -0.24
03/16/2015 12:15 12.7 4.34 -0.47
02/24/2015 13:34 15.3 4.53 -0.52
01/28/2015 11:38 11.6 4.20 -0.40
12/02/2014 10:42 14.5 4.26 -0.29
11/21/2014 11:00 12.9 4.81 -0.93
10/27/2014 11:52 19.6 4.34 -0.15
09/29/2014 11:43 18.0 4.03 0.10
08/28/2014 11:47 1,200 15.17 0.51
08/05/2014 12:34 7.98 3.62 -0.05
07/02/2014 11:25 27.9 4.44 0.05
06/04/2014 12:00 697 12.68 0.22
05/13/2014 11:30 1,480 17.30 -0.81
04/21/2014 12:00 11.5 3.70 0.09
03/17/2014 12:45 10.5 3.65 0.08
02/26/2014 12:00 6.93 3.80 -0.30
01/29/2014 12:00 8.34 4.95 -1.36
12/02/2013 10:46 8.33 3.63 -0.04
11/04/2013 11:28 6.72 3.52 -0.03
10/08/2013 12:19 5.60 3.39 0.02
09/11/2013 13:02 5.10 3.35 0.01
08/06/2013 12:50 12.2 3.68 0.16
07/08/2013 13:15 11.6 3.77 0.03
06/17/2013 14:00 25.2 4.13 0.26
05/30/2013 13:00 653 12.85 -0.30
05/15/2013 13:10 11.3 3.86 -0.08
04/11/2013 11:00 14.0 3.84 0.10
03/13/2013 12:20 12.6 3.84 0.02
02/19/2013 10:30 7.45 3.80 -0.26
01/08/2013 11:30 19.4 4.29 -0.11
12/04/2012 11:15 8.33 3.83 -0.24
11/13/2012 10:45 8.20 3.79 -0.20
10/24/2012 12:00 7.15 3.78 -0.26
09/04/2012 12:30 3.50 3.53 -0.31
08/06/2012 10:45 8.73 3.77 -0.15
07/05/2012 12:30 17.0 4.05 0.03
06/12/2012 12:40 20.4 4.07 0.15
05/30/2012 12:40 109 6.12 0.23
05/21/2012 14:10 27.7 4.31 0.17
04/10/2012 12:45 20.9 4.21 0.03
03/28/2012 14:00 23.8 4.26 0.08
03/01/2012 11:00 20.6 4.34 -0.11
01/05/2012 13:19 21.3 4.19 0.06
12/06/2011 12:00 16.9 4.09 -0.01
11/10/2011 11:30 19.1 4.17 0.00
10/12/2011 10:41 19.5 4.18 0.01
09/21/2011 13:04 18.4 4.12 0.02
08/25/2011 1:00 24.7 4.30 0.08
07/08/2011 10:40 667 12.81 -0.15
06/29/2011 12:18 187 7.52 0.09
05/10/2011 11:48 23.4 4.22 0.11
04/13/2011 13:33 21.6 4.20 0.07
03/16/2011 13:49 25.1 4.28 0.11
01/05/2011 12:36 18.7 4.38 -0.23
12/09/2010 12:54 19.5 4.28 -0.10
11/10/2010 10:45 18.2 4.25 -0.12
10/19/2010 13:49 15.5 4.17 -0.16
09/20/2010 11:38 15.6 4.20 -0.18
08/25/2010 13:12 25.3 4.46 -0.06
07/28/2010 13:12 46.9 5.00 0.03
06/22/2010 11:30 1,260 16.78 -0.89
05/27/2010 11:51 29.6 4.23 0.31
04/27/2010 12:50 33.9 4.38 0.29
03/30/2010 12:50 35.6 4.51 0.21
02/12/2010 12:00 26.3 4.88 -0.45
11/25/2009 11:00 15.3 4.05 -0.79
10/27/2009 12:40 22.1 4.17 -0.52
09/29/2009 12:21 15.5 3.98 -0.71
08/27/2009 13:30 538 12.12 -1.17
08/21/2009 12:40 17.4 4.08 -0.69
07/07/2009 12:00 23.9 4.33 -0.60
06/22/2009 12:30 275 8.79 -0.24
05/29/2009 11:45 24.2 4.35 -0.60
04/28/2009 14:00 19.8 4.23 -0.70
03/25/2009 14:00 18.8 4.26 -0.79
02/24/2009 11:00 18.1 4.28 -0.85
11/18/2008 11:00 35.9 4.69 -0.45
10/30/2008 12:00 62.0 5.29 -0.22
09/17/2008 12:30 15.8 4.10 -0.81
08/19/2008 12:15 26.4 4.40 -0.55
07/23/2008 12:30 98.7 6.00 -0.06
06/06/2008 14:00 1,250 16.71 -1.83
05/20/2008 13:15 22.9 4.01 -0.32
04/22/2008 14:10 25.1 4.17 -0.38
03/19/2008 13:50 17.8 3.87 -0.46
12/18/2007 11:20 15.2 3.78 -0.53
11/19/2007 11:27 15.2 3.73 -0.48
10/23/2007 12:45 81.2 5.40 0.16
09/27/2007 10:00 13.1 3.69 -0.57
08/29/2007 12:30 754 12.77 -0.31
07/09/2007 14:00 23.4 4.12 -0.41
06/19/2007 12:45 108 6.18 -0.05
05/25/2007 12:30 64.6 5.18 -0.04
04/25/2007 12:30 1,280 15.16 -0.16
04/23/2007 13:32 12.9 3.20 -0.10
03/30/2007 12:29 14.4 3.23 -0.03
02/27/2007 12:50 57.5 4.51 0.43
01/30/2007 10:50 11.0 3.67 -0.71
12/14/2006 11:19 9.99 3.12 -0.23
11/21/2006 11:03 8.34 3.06 -0.31
10/24/2006 13:07 8.57 3.06 -0.29
09/25/2006 13:45 13.5 3.27 -0.13
08/17/2006 11:00 1,120 15.98 -1.65
07/19/2006 11:10 4.74 2.88 -0.48
06/23/2006 14:15 48.2 4.71 -0.05
05/17/2006 13:00 9.72 3.15 -0.28
04/26/2006 12:32 10.7 3.17 -0.23
03/30/2006 10:50 25.1 3.84 -0.05
02/13/2006 10:55 7.21 3.10 -0.45
01/05/2006 11:00 6.86 3.08 -0.46
11/18/2005 13:01 7.83 3.00 -0.29
10/17/2005 12:12 4.73 2.90 -0.50
09/26/2005 12:12 5.39 2.95 -0.48
08/09/2005 14:01 5.97 3.09 -0.56
07/08/2005 11:32 4.90 3.10 -0.69
06/20/2005 13:58 21.1 3.72 -0.12
05/27/2005 12:32 24.3 3.94 -0.19
04/19/2005 12:35 730 12.43 -0.12
03/23/2005 11:47 11.8 3.18 -0.16
02/03/2005 11:30 12.0 4.00 -0.96
12/09/2004 11:14 8.83 3.09 -0.30
11/16/2004 11:28 7.97 3.05 -0.33
10/15/2004 12:00 6.69 3.03 -0.43
09/22/2004 12:12 6.26 2.96
08/10/2004 11:12 5.09 2.95
07/20/2004 12:42 10.2 3.18
06/16/2004 12:12 14.0 3.30
05/24/2004 12:10 20.8 3.37
04/13/2004 12:19 14.8 3.35
03/23/2004 10:46 15.4 3.40
03/09/2004 12:43 29.8 3.91
01/14/2004 10:25 11.7 3.58
12/17/2003 9:50 10.2 3.28
11/19/2003 11:04 8.21 3.14
10/09/2003 13:54 7.91 3.10
09/23/2003 12:34 10.4 3.20
08/18/2003 11:22 14.3 3.39
07/11/2003 13:02 12.5 3.45
06/10/2003 12:30 705 13.42
05/13/2003 12:00 31.1 3.83
04/10/2003 12:33 18.0 3.37
03/12/2003 10:00 16.2 3.33
02/11/2003 10:30 7.51 4.15
01/17/2003 11:00 18.9 3.93
12/09/2002 12:52 13.6 3.26
11/13/2002 10:55 13.6 3.40
10/21/2002 12:32 11.1 3.35
09/23/2002 13:25 9.05 3.10
08/19/2002 13:32 27.7 3.72
07/01/2002 13:40 13.4 3.27
06/05/2002 11:58 34.5 4.00
05/08/2002 12:33 26.8 3.85
04/03/2002 12:10 19.6 3.57
03/13/2002 11:10 26.4 3.72
02/07/2002 10:50 32.7 4.15
01/03/2002 11:30 13.9 4.07
12/04/2001 12:30 20.8 3.58
11/06/2001 12:30 15.0 3.45
10/03/2001 11:55 12.0 3.33
09/10/2001 12:10 14.4 3.37
08/07/2001 10:45 13.3 3.39
07/09/2001 14:15 22.0 3.77
06/08/2001 13:10 37.1 4.15
05/07/2001 12:20 250 8.35
04/18/2001 13:10 35.6 4.22
03/07/2001 11:10 291 9.04
02/15/2001 11:30 13.3 3.90
01/04/2001 12:30 19.8 5.28
12/07/2000 10:30 23.2 3.84
11/08/2000 10:35 22.6 3.88
10/04/2000 12:15 14.4 3.61
09/08/2000 12:00 13.1 3.58
08/11/2000 11:55 21.7 3.86
07/14/2000 11:55 25.1 4.14
06/07/2000 12:10 32.6 4.26
05/02/2000 12:50 39.9 4.50
04/14/2000 12:20 37.3 4.55
03/20/2000 13:40 41.2 4.55
02/08/2000 11:30 35.7 4.43
01/12/2000 10:30 31.6 4.42
12/07/1999 11:15 35.6 4.55
11/09/1999 13:30 30.0 4.50
10/05/1999 13:50 26.6 4.34
09/09/1999 12:00 26.3 4.30
08/09/1999 14:10 49.7 5.25
07/01/1999 13:00 1,760 17.60
06/01/1999 14:30 1,050 14.82
05/12/1999 11:00 39.9 4.54
04/13/1999 12:15 37.8 4.37
03/16/1999 11:30 31.3 4.27
02/03/1999 10:40 28.9 4.17
01/11/1999 10:00 30.0 5.09
12/08/1998 11:00 25.6 4.11
11/12/1998 11:05 27.9 4.25
10/08/1998 13:45 21.6 3.94
09/09/1998 12:10 18.2 3.82
08/06/1998 11:50 31.2 4.28
07/08/1998 15:00 51.7 5.02
06/15/1998 12:00 1,050 15.48
06/02/1998 12:20 60.6 5.15
05/05/1998 12:20 40.3 4.45
04/06/1998 13:50 38.7 4.42
03/20/1998 10:40 29.9 4.12
02/10/1998 11:05 30.2 4.08
01/07/1998 12:00 25.6 4.00
12/10/1997 10:45 32.0 4.08
11/07/1997 11:00 33.0 4.30
10/07/1997 11:45 15.8 3.73
09/03/1997 15:30 17.6 3.80
08/07/1997 12:40 32.1 4.21
07/09/1997 10:45 23.5 4.07
06/03/1997 13:50 33.9 4.44
05/06/1997 10:55 29.2 4.40
04/15/1997 12:20 35.9 4.53
03/04/1997 10:40 32.3 4.40
02/05/1997 10:50 31.5 6.58
01/13/1997 14:00 21.0 6.05
12/05/1996 10:50 34.4 4.35
11/07/1996 11:00 20.6 4.27
10/09/1996 11:45 18.7 4.08
09/04/1996 12:25 19.8 4.04
08/05/1996 13:50 42.2 4.74
07/09/1996 12:15 34.2 4.54
06/05/1996 12:20 205 7.68
05/28/1996 11:00 1,740 16.95
05/10/1996 11:05 905 13.48
04/02/1996 11:45 30.0 4.28
03/12/1996 11:15 25.0 4.09
02/06/1996 11:15 17.2 5.50
01/03/1996 11:00 15.7 4.10
12/04/1995 12:00 17.5 3.95
11/13/1995 10:40 17.1 3.91
10/04/1995 10:50 14.5 3.82
09/07/1995 12:45 20.9 3.96
08/09/1995 12:00 19.8 3.96
07/06/1995 13:50 28.0 4.58
06/06/1995 14:00 79.0 5.57
05/30/1995 11:20 390 10.03
05/04/1995 14:35 94.2 5.90
03/21/1995 11:20 32.4 4.50
02/22/1995 13:30 37.5 4.47
01/19/1995 11:10 43.1 4.66
12/13/1994 12:10 28.3 4.70
11/22/1994 11:10 34.6 4.64
10/26/1994 15:00 22.8 4.20
09/22/1994 12:15 21.6 4.11
08/17/1994 11:35 34.5 4.46
07/12/1994 11:40 54.2 4.97
06/23/1994 10:30 1,140 14.17
06/15/1994 11:00 28.9 4.29
05/10/1994 12:40 87.0 5.52
04/11/1994 12:45 30.4 4.52
03/07/1994 12:40 290 8.84
02/08/1994 12:05 18.4 5.74
01/11/1994 11:00 26.9 4.94
12/15/1993 11:00 40.2 4.59
10/12/1993 13:20 34.7 4.64
09/14/1993 13:10 27.2 4.43
08/09/1993 10:50 47.4 4.60
07/28/1993 11:55 203 7.78
07/13/1993 12:10 150 7.50
03/08/1993 11:10 1,610 15.85
06/04/1991 13:48 733 15.04
07/30/1990 13:10 1,710 16.03
07/27/1990 11:00 1,400 14.95
07/26/1990 15:36 1,010 13.71
09/09/1989 15:40 2,620 18.20
08/26/1987 11:15 3,120 18.77
03/24/1987 12:00 2,180 16.88
03/23/1987 12:00 1,690 15.59
07/02/1986 13:00 3,220 18.77
07/01/1986 13:00 3,340 18.72
06/30/1986 13:00 1,500 15.58
07/22/1985 13:00 2,210 17.49
Export



Download Rating Curve
  
2.43     0.00
2.44     0.01
2.45     0.01
2.46     0.01
2.47     0.01
2.48     0.01
2.49     0.01
2.50     0.01
2.51     0.01
2.52     0.01
2.53     0.01
2.54     0.01
2.55     0.01
2.56     0.01
2.57     0.01
2.58     0.01
2.59     0.02
2.60     0.02
2.61     0.02
2.62     0.02
2.63     0.02
2.64     0.02
2.65     0.02
2.66     0.03
2.67     0.03
2.68     0.03
2.69     0.03
2.70     0.03
2.71     0.04
2.72     0.04
2.73     0.04
2.74     0.04
2.75     0.05
2.76     0.05
2.77     0.05
2.78     0.06
2.79     0.06
2.80     0.07
2.81     0.07
2.82     0.08
2.83     0.08
2.84     0.09
2.85     0.09
2.86     0.10
2.87     0.10
2.88     0.11
2.89     0.12
2.90     0.13
2.91     0.13
2.92     0.14
2.93     0.15
2.94     0.16
2.95     0.17
2.96     0.18
2.97     0.19
2.98     0.21
2.99     0.22
3.00     0.23
3.01     0.25
3.02     0.26
3.03     0.28
3.04     0.30
3.05     0.31
3.06     0.33
3.07     0.35
3.08     0.38
3.09     0.40
3.10     0.42
3.11     0.45
3.12     0.48
3.13     0.50
3.14     0.53
3.15     0.57
3.16     0.60
3.17     0.64
3.18     0.67
3.19     0.71
3.20     0.75
3.21     0.80
3.22     0.85
3.23     0.89
3.24     0.95
3.25     1.00
3.26     1.06
3.27     1.12
3.28     1.18
3.29     1.25
3.30     1.32
3.31     1.40
3.32     1.48
3.33     1.56
3.34     1.65
3.35     1.74
3.36     1.84
3.37     1.94
3.38     2.05
3.39     2.16
3.40     2.27
3.41     2.34
3.42     2.42
Download Rating Curve